Time;durP1;ratioP1;P1;durP2;ratioP2;P2;SDS_P1;SDS_P2;PMS_P1;PMS_P2;Temp;Humidity;BMP_temperature;BMP_pressure;BME280_temperature;BME280_humidity;BME280_pressure;Samples;Min_cycle;Max_cycle;Signal;HPM_P1;HPM_P2
2021/03/06 00:02:06;;;;;;;4.43;2.78;;;;;;;-3.79;66.14;99660.31;5004733;28;20022;-55
2021/03/06 00:04:32;;;;;;;5.78;2.80;;;;;;;-3.75;65.42;99652.03;5000191;28;20028;-54
2021/03/06 00:06:57;;;;;;;5.13;2.58;;;;;;;-3.72;65.33;99657.19;5004668;28;20038;-53
2021/03/06 00:09:23;;;;;;;4.30;3.40;;;;;;;-3.66;65.25;99647.31;5004607;28;20035;-55
2021/03/06 00:11:49;;;;;;;3.65;2.60;;;;;;;-3.65;65.74;99643.94;5004317;28;20026;-53
2021/03/06 00:14:14;;;;;;;4.43;2.72;;;;;;;-3.58;66.20;99652.63;5004450;28;20375;-53
2021/03/06 00:16:40;;;;;;;3.60;2.10;;;;;;;-3.45;65.65;99656.44;5004602;28;20234;-53
2021/03/06 00:19:06;;;;;;;4.43;2.88;;;;;;;-3.48;65.35;99659.72;5004645;28;20034;-54
2021/03/06 00:21:32;;;;;;;2.25;2.03;;;;;;;-3.44;65.41;99659.03;5004330;28;20464;-53
2021/03/06 00:23:57;;;;;;;3.08;2.10;;;;;;;-3.69;64.14;99644.63;5004501;28;20030;-54
2021/03/06 00:26:23;;;;;;;5.00;3.03;;;;;;;-3.68;66.75;99654.84;5004250;28;20098;-54
2021/03/06 00:28:49;;;;;;;5.82;2.38;;;;;;;-3.79;66.68;99647.66;5004341;28;20231;-54
2021/03/06 00:31:14;;;;;;;3.60;2.00;;;;;;;-3.84;66.87;99637.38;5004054;28;20026;-53
2021/03/06 00:33:40;;;;;;;3.70;2.20;;;;;;;-3.72;66.49;99650.47;5004432;28;20093;-53
2021/03/06 00:36:07;;;;;;;5.35;2.65;;;;;;;-3.78;65.69;99651.91;5003993;28;20030;-54
2021/03/06 00:38:32;;;;;;;4.60;2.08;;;;;;;-3.74;65.72;99639.44;5004268;28;20042;-53
2021/03/06 00:40:58;;;;;;;3.13;2.20;;;;;;;-3.74;65.78;99649.53;5004178;28;20026;-53
2021/03/06 00:43:24;;;;;;;3.22;1.98;;;;;;;-3.73;65.68;99656.34;5003982;28;20245;-54
2021/03/06 00:45:50;;;;;;;4.70;2.40;;;;;;;-3.83;65.11;99651.78;5004062;28;20033;-54
2021/03/06 00:48:15;;;;;;;3.03;2.17;;;;;;;-3.88;66.31;99653.25;5003876;28;20069;-53
2021/03/06 00:50:41;;;;;;;3.53;2.42;;;;;;;-3.88;65.65;99663.38;5004038;28;20053;-52
2021/03/06 00:53:07;;;;;;;3.58;2.92;;;;;;;-3.89;65.77;99652.41;5003834;28;20044;-55
2021/03/06 00:55:32;;;;;;;5.72;2.90;;;;;;;-3.87;65.71;99653.31;5003782;28;20030;-55
2021/03/06 00:57:58;;;;;;;5.18;3.10;;;;;;;-3.88;65.84;99664.22;5003796;28;20029;-55
2021/03/06 01:00:24;;;;;;;5.25;3.08;;;;;;;-4.28;66.33;99659.38;5003646;28;20449;-54
2021/03/06 01:02:50;;;;;;;3.90;2.22;;;;;;;-4.08;67.59;99652.53;5003765;28;20215;-55
2021/03/06 01:05:16;;;;;;;3.28;2.05;;;;;;;-4.27;66.40;99649.31;4996449;28;20031;-54
2021/03/06 01:07:42;;;;;;;3.95;2.45;;;;;;;-4.32;67.22;99660.91;4986271;28;20086;-55
2021/03/06 01:10:13;;;;;;;5.32;2.38;;;;;;;-4.74;66.95;99592.81;5000713;28;20038;-55
2021/03/06 01:12:39;;;;;;;2.97;2.00;;;;;;;-4.27;66.40;99656.06;5000972;28;20026;-55
2021/03/06 01:15:06;;;;;;;5.13;2.58;;;;;;;-4.39;65.65;99653.91;5003187;28;20034;-54
2021/03/06 01:17:32;;;;;;;3.72;2.35;;;;;;;-4.39;66.00;99659.84;5003585;28;20026;-54
2021/03/06 01:19:58;;;;;;;3.88;2.33;;;;;;;-4.46;66.51;99657.91;5003573;28;20026;-54
2021/03/06 01:22:24;;;;;;;3.13;2.17;;;;;;;-4.57;67.22;99652.41;5003096;28;20311;-54
2021/03/06 01:24:49;;;;;;;3.42;2.30;;;;;;;-4.36;67.76;99661.59;5003430;28;20077;-54
2021/03/06 01:27:15;;;;;;;4.35;2.40;;;;;;;-4.27;66.74;99656.06;5003023;28;20267;-54
2021/03/06 01:29:41;;;;;;;2.72;2.40;;;;;;;-4.45;66.30;99646.97;5003361;28;20038;-53
2021/03/06 01:32:07;;;;;;;4.53;2.72;;;;;;;-4.40;65.95;99659.78;4985050;28;20033;-53
2021/03/06 01:34:33;;;;;;;3.38;2.08;;;;;;;-4.43;65.93;99647.91;5003109;28;20407;-55
2021/03/06 01:36:58;;;;;;;3.58;2.78;;;;;;;-4.41;67.07;99660.59;5003328;28;20207;-54
2021/03/06 01:39:24;;;;;;;3.33;2.28;;;;;;;-4.42;66.72;99662.22;5002695;28;20065;-54
2021/03/06 01:41:51;;;;;;;6.18;2.75;;;;;;;-4.60;66.35;99666.56;5003135;28;20296;-54
2021/03/06 01:44:17;;;;;;;3.30;2.50;;;;;;;-4.51;66.01;99669.47;5002992;28;20030;-54
2021/03/06 01:46:43;;;;;;;3.15;2.38;;;;;;;-4.59;66.75;99665.78;5002886;28;20040;-55
2021/03/06 01:49:09;;;;;;;3.30;2.20;;;;;;;-4.53;67.28;99668.56;5002826;28;20394;-56
2021/03/06 01:51:36;;;;;;;4.22;2.20;;;;;;;-4.54;67.09;99670.22;5002800;28;20093;-55
2021/03/06 01:54:04;;;;;;;2.88;2.35;;;;;;;-4.53;66.65;99681.19;5002992;28;20080;-54
2021/03/06 01:56:32;;;;;;;4.45;2.45;;;;;;;-4.57;66.29;99672.63;5002629;28;20030;-54
2021/03/06 01:58:58;;;;;;;4.15;2.30;;;;;;;-4.54;66.54;99666.84;5002677;28;20236;-53
2021/03/06 02:01:24;;;;;;;3.83;2.35;;;;;;;-4.59;66.36;99658.19;5002711;28;20030;-52
2021/03/06 02:03:50;;;;;;;3.83;2.50;;;;;;;-4.68;65.19;99657.03;5006853;28;20041;-54
2021/03/06 02:06:17;;;;;;;3.15;2.42;;;;;;;-4.64;65.64;99665.59;4976857;28;20217;-54
2021/03/06 02:08:42;;;;;;;3.67;2.67;;;;;;;-4.71;66.39;99673.75;5002754;28;20108;-54
2021/03/06 02:11:08;;;;;;;4.32;2.20;;;;;;;-4.71;65.62;99668.69;5000283;28;20041;-53
2021/03/06 02:13:52;;;;;;;6.03;2.47;;;;;;;-5.21;65.94;99597.72;4998568;28;20026;-54
2021/03/06 02:16:36;;;;;;;4.38;2.65;;;;;;;-4.73;65.93;99670.28;5002681;28;20307;-53
2021/03/06 02:19:24;;;;;;;6.30;2.55;;;;;;;-4.73;65.44;99680.38;5002987;28;20231;-54
2021/03/06 02:22:36;;;;;;;9.73;2.88;;;;;;;-4.78;66.60;99684.41;4996940;28;20026;-54
2021/03/06 02:25:36;;;;;;;6.45;3.08;;;;;;;-5.20;65.45;99607.00;4923883;29;20153;-53
2021/03/06 02:28:43;;;;;;;4.35;2.72;;;;;;;-4.81;64.66;99682.63;4923901;29;20039;-56
2021/03/06 02:31:10;;;;;;;4.40;2.70;;;;;;;-4.79;66.01;99685.22;5001919;28;20060;-55
2021/03/06 02:33:39;;;;;;;4.30;2.70;;;;;;;-5.12;67.28;99615.72;5002459;28;20038;-55
2021/03/06 02:36:13;;;;;;;6.95;3.20;;;;;;;-4.79;65.54;99708.78;5002341;28;20037;-55
2021/03/06 02:38:40;;;;;;;5.93;2.90;;;;;;;-4.76;65.44;99680.28;5002721;28;20085;-56
2021/03/06 02:41:10;;;;;;;6.18;3.22;;;;;;;-4.89;65.33;99663.75;5002461;28;20033;-55
2021/03/06 02:43:36;;;;;;;5.28;3.38;;;;;;;-4.72;65.50;99692.22;4995061;28;20022;-55
2021/03/06 02:46:06;;;;;;;4.38;3.00;;;;;;;-4.83;67.31;99674.13;5002590;28;20033;-56
2021/03/06 02:48:33;;;;;;;5.07;3.10;;;;;;;-5.06;66.59;99637.84;5002359;28;20027;-55
2021/03/06 02:50:59;;;;;;;5.07;3.35;;;;;;;-4.72;65.04;99702.34;5002360;28;20031;-55
2021/03/06 02:53:24;;;;;;;4.57;3.03;;;;;;;-4.91;65.90;99671.28;5005624;28;20033;-54
2021/03/06 02:55:50;;;;;;;6.07;2.78;;;;;;;-4.74;66.39;99698.91;5006218;28;20026;-54
2021/03/06 02:58:24;;;;;;;8.75;3.25;;;;;;;-5.20;67.11;99635.63;5005986;28;20401;-54
2021/03/06 03:00:53;;;;;;;6.85;3.50;;;;;;;-4.98;64.31;99678.56;5004176;28;20061;-54
2021/03/06 03:03:44;;;;;;;10.27;4.15;;;;;;;-5.06;64.40;99706.00;5004922;28;20032;-55
2021/03/06 03:06:35;;;;;;;11.98;6.15;;;;;;;-4.94;65.49;99713.25;5002523;28;20154;-53
2021/03/06 03:09:32;;;;;;;6.93;3.10;;;;;;;-5.11;65.77;99710.03;5003756;28;20334;-54
2021/03/06 03:12:07;;;;;;;4.80;3.05;;;;;;;-5.12;64.79;99715.84;4996528;28;20041;-53
2021/03/06 03:14:37;;;;;;;6.82;3.42;;;;;;;-5.40;66.51;99636.44;5005770;28;20102;-54
2021/03/06 03:17:10;;;;;;;4.90;2.88;;;;;;;-4.97;67.52;99720.66;5005640;28;20026;-54
2021/03/06 03:19:46;;;;;;;5.93;3.42;;;;;;;-5.43;65.97;99638.84;4997953;28;20037;-54
2021/03/06 03:22:15;;;;;;;5.30;2.95;;;;;;;-5.00;66.57;99712.97;5005499;28;20041;-55
2021/03/06 03:24:43;;;;;;;6.75;3.60;;;;;;;-5.09;65.28;99704.25;5005578;28;20035;-53
2021/03/06 03:27:11;;;;;;;6.28;3.15;;;;;;;-5.13;67.46;99720.06;5005602;28;20030;-55
2021/03/06 03:29:41;;;;;;;5.45;3.63;;;;;;;-5.15;66.57;99703.13;5005391;28;20093;-54
2021/03/06 03:32:10;;;;;;;5.03;3.30;;;;;;;-5.59;65.99;99645.78;5005427;28;20072;-56
2021/03/06 03:34:37;;;;;;;11.15;4.00;;;;;;;-5.10;66.50;99706.66;4987990;28;20030;-54
2021/03/06 03:37:04;;;;;;;8.98;4.10;;;;;;;-5.17;65.92;99710.63;5005238;28;20038;-54
2021/03/06 03:39:31;;;;;;;7.30;4.32;;;;;;;-5.27;66.00;99711.03;5005324;28;20097;-54
2021/03/06 03:41:58;;;;;;;5.88;3.88;;;;;;;-5.15;66.71;99721.63;5005176;28;20081;-54
2021/03/06 03:44:25;;;;;;;5.72;3.45;;;;;;;-5.21;66.54;99711.28;5005096;28;20265;-54
2021/03/06 03:46:51;;;;;;;8.88;3.97;;;;;;;-5.25;66.18;99709.44;5005066;28;20026;-53
2021/03/06 03:49:20;;;;;;;9.68;4.15;;;;;;;-5.25;67.60;99717.00;5004943;28;20243;-54
2021/03/06 03:51:47;;;;;;;10.00;4.13;;;;;;;-5.23;67.49;99722.97;5004983;28;20060;-53
2021/03/06 03:54:14;;;;;;;5.05;3.53;;;;;;;-5.59;65.79;99665.94;5004993;28;20311;-54
2021/03/06 03:56:41;;;;;;;9.95;4.40;;;;;;;-5.20;67.27;99721.44;5005061;28;20214;-54
2021/03/06 03:59:07;;;;;;;7.78;3.97;;;;;;;-5.32;67.21;99728.50;5005050;28;20060;-53
2021/03/06 04:01:46;;;;;;;8.88;3.95;;;;;;;-5.29;67.62;99730.28;5004568;28;20030;-54
2021/03/06 04:04:26;;;;;;;5.72;3.92;;;;;;;-5.12;66.93;99729.34;5004321;28;20347;-54
2021/03/06 04:06:53;;;;;;;8.27;3.53;;;;;;;-5.12;65.78;99715.84;5002860;28;20034;-53
2021/03/06 04:09:20;;;;;;;5.10;3.35;;;;;;;-5.12;65.78;99724.28;4999911;28;20026;-54
2021/03/06 04:11:46;;;;;;;8.43;3.97;;;;;;;-5.31;65.47;99715.09;5001407;28;20034;-54
2021/03/06 04:14:11;;;;;;;11.63;4.15;;;;;;;-5.39;65.60;99722.34;5004475;28;20045;-54
2021/03/06 04:16:37;;;;;;;7.05;3.85;;;;;;;-5.42;68.15;99727.22;5004624;28;20026;-56
2021/03/06 04:19:04;;;;;;;8.18;4.28;;;;;;;-5.38;67.23;99726.56;5004693;28;20314;-54
2021/03/06 04:21:29;;;;;;;6.57;3.85;;;;;;;-5.28;68.25;99716.88;5004449;28;20028;-54
2021/03/06 04:23:55;;;;;;;6.75;4.18;;;;;;;-5.47;65.51;99712.69;5004452;28;20054;-54
2021/03/06 04:26:21;;;;;;;8.95;4.50;;;;;;;-5.27;66.00;99726.19;5004351;28;20287;-54
2021/03/06 04:28:47;;;;;;;6.63;4.13;;;;;;;-5.43;67.59;99715.44;5004123;28;20040;-53
2021/03/06 04:31:13;;;;;;;6.57;4.75;;;;;;;-5.22;67.08;99727.22;5005391;28;20061;-53
2021/03/06 04:33:38;;;;;;;8.05;4.57;;;;;;;-5.20;67.04;99715.56;5004145;28;20061;-54
2021/03/06 04:36:05;;;;;;;7.65;4.80;;;;;;;-5.21;66.20;99721.38;5003912;28;20073;-54
2021/03/06 04:38:31;;;;;;;7.22;4.57;;;;;;;-5.19;66.56;99724.81;5004175;28;20041;-53
2021/03/06 04:40:58;;;;;;;6.43;4.13;;;;;;;-5.13;67.42;99720.06;4998032;28;20050;-54
2021/03/06 04:43:23;;;;;;;9.90;5.53;;;;;;;-5.20;66.56;99707.97;5002689;28;20319;-55
2021/03/06 04:45:49;;;;;;;8.73;5.25;;;;;;;-5.17;66.95;99720.72;4986670;28;20023;-54
2021/03/06 04:48:15;;;;;;;9.13;5.35;;;;;;;-5.14;67.20;99715.78;5001532;28;20050;-55
2021/03/06 04:50:40;;;;;;;8.63;5.10;;;;;;;-5.05;66.67;99720.38;5000382;28;20037;-55
2021/03/06 04:53:11;;;;;;;14.48;5.35;;;;;;;-5.08;65.08;99716.03;5001788;28;20038;-54
2021/03/06 04:55:36;;;;;;;6.78;4.57;;;;;;;-5.07;66.50;99715.25;5008811;28;20194;-54
2021/03/06 04:58:02;;;;;;;9.43;5.15;;;;;;;-5.07;65.84;99714.41;5003667;28;20022;-54
2021/03/06 05:00:28;;;;;;;8.98;5.03;;;;;;;-5.01;65.98;99727.28;5003460;28;20049;-54
2021/03/06 05:02:55;;;;;;;6.40;4.50;;;;;;;-4.98;64.73;99726.53;5003672;28;20022;-53
2021/03/06 05:05:20;;;;;;;7.95;4.40;;;;;;;-4.94;66.62;99720.81;5003614;28;20030;-54
2021/03/06 05:07:46;;;;;;;8.85;5.22;;;;;;;-4.81;67.37;99730.59;5002581;28;20380;-53
2021/03/06 05:10:12;;;;;;;7.28;5.00;;;;;;;-4.72;65.03;99741.09;5000589;28;20034;-54
2021/03/06 05:12:38;;;;;;;8.50;5.28;;;;;;;-4.88;64.78;99737.06;4998821;28;20022;-53
2021/03/06 05:15:05;;;;;;;9.32;4.75;;;;;;;-5.20;66.65;99691.16;5002848;28;20219;-54
2021/03/06 05:17:31;;;;;;;8.65;5.40;;;;;;;-4.76;65.31;99728.25;4997061;28;20105;-55
2021/03/06 05:19:58;;;;;;;9.10;4.95;;;;;;;-4.80;64.95;99744.97;5002581;28;20041;-55
2021/03/06 05:22:24;;;;;;;6.95;4.82;;;;;;;-4.75;65.10;99733.38;4997883;28;20042;-55
2021/03/06 05:24:49;;;;;;;7.38;5.40;;;;;;;-4.69;65.98;99745.41;5008220;28;20093;-55
2021/03/06 05:27:16;;;;;;;7.50;4.97;;;;;;;-4.98;65.31;99745.06;5002806;28;20034;-55
2021/03/06 05:29:41;;;;;;;6.88;4.95;;;;;;;-4.94;67.44;99748.59;5003049;28;20042;-55
2021/03/06 05:32:07;;;;;;;8.38;5.80;;;;;;;-4.96;66.60;99752.69;5002914;28;20018;-55
2021/03/06 05:34:34;;;;;;;10.60;5.13;;;;;;;-4.96;67.21;99752.69;5003003;28;20073;-55
2021/03/06 05:37:00;;;;;;;9.23;5.60;;;;;;;-5.29;67.01;99763.09;5000679;28;20045;-54
2021/03/06 05:39:26;;;;;;;9.05;5.78;;;;;;;-5.18;66.39;99766.09;5001478;28;20307;-56
2021/03/06 05:41:52;;;;;;;11.60;6.70;;;;;;;-5.07;65.68;99769.94;5002713;28;20332;-56
2021/03/06 05:44:19;;;;;;;11.35;6.28;;;;;;;-5.05;67.01;99763.28;5002552;28;20338;-54
2021/03/06 05:46:45;;;;;;;9.90;5.50;;;;;;;-4.81;66.95;99757.53;4985443;28;20338;-55
2021/03/06 05:49:13;;;;;;;8.05;5.55;;;;;;;-4.98;66.15;99713.91;4983362;28;20022;-54
2021/03/06 05:51:41;;;;;;;9.50;6.00;;;;;;;-4.69;64.88;99760.56;4982598;28;20065;-55
2021/03/06 05:54:10;;;;;;;9.07;5.88;;;;;;;-4.96;66.09;99707.25;4990988;28;20196;-54
2021/03/06 05:56:38;;;;;;;9.65;5.90;;;;;;;-4.88;65.37;99700.84;4991180;28;20034;-55
2021/03/06 05:59:07;;;;;;;9.63;6.47;;;;;;;-5.09;64.46;99710.94;5002291;28;20027;-55
2021/03/06 06:01:34;;;;;;;12.23;6.85;;;;;;;-4.58;65.54;99783.75;5002016;28;20083;-55
2021/03/06 06:04:04;;;;;;;12.63;5.78;;;;;;;-4.64;63.91;99779.31;5002373;28;20030;-55
2021/03/06 06:06:31;;;;;;;8.27;6.32;;;;;;;-4.61;63.71;99776.03;5002174;28;20086;-55
2021/03/06 06:09:05;;;;;;;11.23;5.95;;;;;;;-4.47;64.49;99759.78;4997278;28;20029;-56
2021/03/06 06:11:31;;;;;;;10.43;6.28;;;;;;;-4.68;63.77;99780.81;4994570;28;20087;-56
2021/03/06 06:13:58;;;;;;;10.77;6.93;;;;;;;-4.92;63.80;99783.19;4997132;28;20027;-56
2021/03/06 06:16:28;;;;;;;11.35;6.93;;;;;;;-4.58;64.16;99771.09;5001065;28;20026;-55
2021/03/06 06:18:55;;;;;;;13.48;6.78;;;;;;;-4.39;65.17;99772.69;5002221;28;20026;-55
2021/03/06 06:21:40;;;;;;;17.25;7.82;;;;;;;-4.26;63.36;99779.09;5002066;28;20065;-55
2021/03/06 06:24:18;;;;;;;13.85;7.10;;;;;;;-4.40;63.61;99758.34;5002064;28;20103;-55
2021/03/06 06:26:58;;;;;;;11.85;6.47;;;;;;;-4.31;61.67;99783.13;4980833;28;20030;-57
2021/03/06 06:29:39;;;;;;;11.18;6.97;;;;;;;-4.19;62.97;99764.25;4987781;28;20346;-54
2021/03/06 06:32:07;;;;;;;11.38;7.07;;;;;;;-4.14;62.07;99772.00;5005361;28;20041;-54
2021/03/06 06:34:35;;;;;;;11.90;7.68;;;;;;;-4.14;63.74;99768.63;5005192;28;20089;-54
2021/03/06 06:37:11;;;;;;;14.32;7.53;;;;;;;-3.88;62.32;99762.03;4987127;28;20058;-57
2021/03/06 06:39:38;;;;;;;12.48;7.13;;;;;;;-3.79;61.62;99764.91;5002969;28;20216;-56
2021/03/06 06:42:04;;;;;;;13.98;6.93;;;;;;;-3.67;60.95;99770.41;5004967;28;20031;-55
2021/03/06 06:44:31;;;;;;;11.80;6.13;;;;;;;-3.79;61.62;99762.38;5002528;28;20038;-55
2021/03/06 06:47:08;;;;;;;10.20;5.93;;;;;;;-3.78;59.39;99753.97;4984915;28;20038;-55
2021/03/06 06:49:46;;;;;;;8.85;5.40;;;;;;;-2.98;57.97;99774.56;5000253;28;20048;-55
2021/03/06 06:52:13;;;;;;;7.82;5.03;;;;;;;-1.93;54.71;99761.84;5000742;28;20219;-55
2021/03/06 06:54:39;;;;;;;7.97;5.07;;;;;;;-1.13;53.37;99753.09;5005628;28;20030;-55
2021/03/06 06:57:10;;;;;;;6.45;5.30;;;;;;;-0.14;51.21;99747.88;5005512;28;20033;-55
2021/03/06 06:59:38;;;;;;;8.10;5.30;;;;;;;-0.55;48.23;99741.88;5005860;28;20031;-55
2021/03/06 07:02:05;;;;;;;7.40;4.15;;;;;;;0.05;47.48;99760.22;5002764;28;20259;-55
2021/03/06 07:04:46;;;;;;;7.55;4.70;;;;;;;1.35;47.89;99678.53;5004885;28;20038;-56
2021/03/06 07:07:14;;;;;;;8.50;5.22;;;;;;;1.32;45.27;99743.13;5003400;28;20029;-54
2021/03/06 07:10:06;;;;;;;7.45;4.90;;;;;;;2.34;42.73;99748.91;5000973;28;20106;-55
2021/03/06 07:12:34;;;;;;;9.30;3.45;;;;;;;1.67;45.64;99680.75;5004637;28;20046;-55
2021/03/06 07:15:01;;;;;;;7.68;3.83;;;;;;;3.09;42.11;99724.19;4987891;28;20045;-55
2021/03/06 07:17:48;;;;;;;5.50;3.40;;;;;;;1.88;42.13;99750.00;5003371;28;20026;-55
2021/03/06 07:20:20;;;;;;;6.68;3.55;;;;;;;2.19;43.14;99742.72;5002662;28;20089;-54
2021/03/06 07:22:47;;;;;;;5.60;3.28;;;;;;;2.78;43.24;99735.81;4986610;28;20084;-55
2021/03/06 07:25:13;;;;;;;3.97;3.08;;;;;;;2.56;39.71;99730.41;5004801;28;20061;-54
2021/03/06 07:27:41;;;;;;;5.28;3.00;;;;;;;1.48;42.00;99746.81;5005024;28;20065;-54
2021/03/06 07:30:08;;;;;;;3.92;2.70;;;;;;;2.65;42.01;99736.47;5005016;28;20094;-54
2021/03/06 07:32:38;;;;;;;5.10;4.50;;;;;;;2.18;41.04;99748.69;4999725;28;20037;-54
2021/03/06 07:35:06;;;;;;;5.03;3.28;;;;;;;3.26;40.57;99734.56;5002362;28;20046;-55
2021/03/06 07:37:33;;;;;;;9.10;3.40;;;;;;;3.59;40.05;99728.03;5000534;28;20105;-55
2021/03/06 07:40:12;;;;;;;3.75;2.80;;;;;;;4.01;38.36;99742.81;4987144;28;20026;-55
2021/03/06 07:42:47;;;;;;;5.22;3.72;;;;;;;3.62;38.66;99722.06;5002507;28;20026;-56
2021/03/06 07:45:21;;;;;;;5.80;2.83;;;;;;;2.77;40.26;99723.84;5000082;28;20382;-55
2021/03/06 07:47:50;;;;;;;4.15;2.60;;;;;;;2.60;39.50;99718.53;5002683;28;20026;-55
2021/03/06 07:50:27;;;;;;;5.38;3.05;;;;;;;1.66;41.78;99747.94;5002818;28;20081;-55
2021/03/06 07:52:56;;;;;;;6.03;2.95;;;;;;;1.03;42.19;99745.19;4999667;28;20215;-55
2021/03/06 07:55:25;;;;;;;8.98;2.65;;;;;;;2.33;42.54;99721.63;5002704;28;20041;-55
2021/03/06 07:58:01;;;;;;;6.90;3.25;;;;;;;2.04;41.37;99722.97;4999196;28;20026;-54
2021/03/06 08:00:42;;;;;;;4.93;2.90;;;;;;;1.51;41.24;99723.91;4998152;28;20034;-56
2021/03/06 08:03:35;;;;;;;5.88;2.60;;;;;;;0.56;43.60;99732.41;4969494;28;20033;-55
2021/03/06 08:06:20;;;;;;;3.15;2.47;;;;;;;-0.74;44.63;99664.28;4999798;28;20111;-54
2021/03/06 08:08:46;;;;;;;6.45;3.33;;;;;;;-0.20;46.03;99735.88;5001953;28;20041;-53
2021/03/06 08:11:17;;;;;;;4.75;2.72;;;;;;;-0.15;48.29;99728.38;4993654;28;20037;-55
2021/03/06 08:13:54;;;;;;;4.22;2.72;;;;;;;-1.23;47.57;99658.84;5004463;28;20077;-54
2021/03/06 08:16:20;;;;;;;4.75;2.83;;;;;;;-0.54;49.79;99723.25;5002405;28;20304;-54
2021/03/06 08:18:45;;;;;;;5.22;2.97;;;;;;;-0.34;46.64;99725.41;4990695;28;20031;-54
2021/03/06 08:21:37;;;;;;;5.35;2.72;;;;;;;1.45;44.41;99718.69;4997672;28;20106;-54
2021/03/06 08:24:24;;;;;;;6.07;3.40;;;;;;;1.55;44.89;99712.03;5004351;28;20057;-53
2021/03/06 08:27:02;;;;;;;5.75;3.00;;;;;;;0.89;44.13;99654.84;5004363;28;20030;-54
2021/03/06 08:29:28;;;;;;;6.32;3.17;;;;;;;1.45;42.79;99711.03;5003962;28;20354;-54
2021/03/06 08:32:04;;;;;;;3.58;2.88;;;;;;;0.31;44.78;99717.50;5003935;28;20311;-53
2021/03/06 08:34:38;;;;;;;4.05;2.70;;;;;;;-0.81;46.68;99651.38;5003729;28;20077;-54
2021/03/06 08:37:13;;;;;;;3.10;2.53;;;;;;;0.43;45.09;99721.09;5003873;28;20057;-54
2021/03/06 08:39:51;;;;;;;4.07;2.70;;;;;;;0.41;44.76;99715.97;4996767;28;20034;-54
2021/03/06 08:42:22;;;;;;;5.07;3.03;;;;;;;-0.39;46.59;99696.44;5001056;28;20061;-54
2021/03/06 08:44:49;;;;;;;8.65;3.20;;;;;;;-0.01;45.92;99720.19;4999641;28;20046;-54
2021/03/06 08:47:29;;;;;;;4.00;2.70;;;;;;;0.32;45.97;99696.25;4999423;28;20036;-54
2021/03/06 08:49:57;;;;;;;5.80;3.25;;;;;;;0.27;44.02;99651.16;5003104;28;20358;-55
2021/03/06 08:52:27;;;;;;;3.40;2.78;;;;;;;1.04;44.88;99706.09;5003542;28;20022;-54
2021/03/06 08:54:54;;;;;;;5.75;3.05;;;;;;;1.23;42.76;99704.72;5003739;28;20041;-54
2021/03/06 08:57:23;;;;;;;6.53;3.70;;;;;;;1.18;44.06;99704.66;5003837;28;20420;-54
2021/03/06 08:59:50;;;;;;;5.45;3.60;;;;;;;0.64;46.51;99719.00;4998057;28;20327;-54
2021/03/06 09:02:18;;;;;;;5.03;3.83;;;;;;;0.95;45.30;99711.03;5001072;28;20093;-54
2021/03/06 09:04:43;;;;;;;6.82;3.63;;;;;;;0.38;46.74;99726.09;5003597;28;20042;-54
2021/03/06 09:07:25;;;;;;;7.85;3.90;;;;;;;-0.19;46.36;99671.44;4994009;28;20343;-54
2021/03/06 09:09:51;;;;;;;8.68;5.53;;;;;;;-0.88;47.39;99727.50;4993893;28;20327;-53
2021/03/06 09:12:16;;;;;;;7.30;4.47;;;;;;;-1.12;49.49;99722.63;4999069;28;20062;-54
2021/03/06 09:14:42;;;;;;;6.88;4.10;;;;;;;-1.30;50.28;99732.31;5018135;28;20034;-54
2021/03/06 09:17:11;;;;;;;6.30;4.25;;;;;;;-1.40;49.34;99726.13;5003353;28;20093;-54
2021/03/06 09:19:37;;;;;;;5.95;3.75;;;;;;;-1.17;49.57;99719.09;4995910;28;20060;-54
2021/03/06 09:22:09;;;;;;;9.07;4.88;;;;;;;-0.35;47.46;99718.59;4999279;28;20034;-54
2021/03/06 09:24:49;;;;;;;6.70;3.88;;;;;;;0.57;46.39;99675.50;4996478;28;20034;-54
2021/03/06 09:27:16;;;;;;;4.18;3.30;;;;;;;0.73;45.47;99715.75;5003001;28;20046;-54
2021/03/06 09:29:44;;;;;;;6.43;3.60;;;;;;;-0.06;45.57;99640.34;5003033;28;20040;-54
2021/03/06 09:32:10;;;;;;;6.57;3.63;;;;;;;0.06;45.55;99721.19;5002845;28;20029;-56
2021/03/06 09:34:37;;;;;;;4.75;3.45;;;;;;;-0.37;47.91;99743.13;5003125;28;20027;-54
2021/03/06 09:37:19;;;;;;;4.28;2.70;;;;;;;-0.37;47.22;99717.69;5002972;28;20045;-53
2021/03/06 09:39:45;;;;;;;4.38;2.72;;;;;;;-0.56;45.32;99711.31;4999859;28;20218;-55
2021/03/06 09:42:17;;;;;;;6.00;2.60;;;;;;;-0.90;46.80;99720.66;5000472;28;20061;-53
2021/03/06 09:44:49;;;;;;;6.32;2.85;;;;;;;-1.16;46.66;99707.28;5002873;28;20022;-54
2021/03/06 09:47:24;;;;;;;3.53;2.40;;;;;;;-1.09;46.64;99727.78;5002766;28;20026;-54
2021/03/06 09:49:51;;;;;;;3.05;2.20;;;;;;;-1.02;46.61;99725.44;5002770;28;20034;-54
2021/03/06 09:52:16;;;;;;;4.28;2.83;;;;;;;-1.11;46.58;99721.81;5000408;28;20189;-55
2021/03/06 09:54:42;;;;;;;6.53;3.20;;;;;;;-1.17;46.29;99715.72;5002231;28;20029;-54
2021/03/06 09:57:08;;;;;;;4.40;2.47;;;;;;;-0.94;46.35;99726.47;5002399;28;20097;-55
2021/03/06 09:59:36;;;;;;;4.68;2.35;;;;;;;-1.18;45.73;99706.38;4994851;28;20038;-54
2021/03/06 10:02:07;;;;;;;5.38;2.60;;;;;;;-1.47;46.20;99669.25;5002251;28;20064;-55
2021/03/06 10:04:33;;;;;;;4.03;2.70;;;;;;;-0.94;45.81;99707.00;5002726;28;20058;-55
2021/03/06 10:07:01;;;;;;;6.47;2.80;;;;;;;-1.61;47.06;99711.13;5002518;28;20031;-54
2021/03/06 10:09:32;;;;;;;5.15;2.75;;;;;;;-1.47;46.64;99714.94;5002539;28;20410;-54
2021/03/06 10:12:15;;;;;;;4.03;2.90;;;;;;;-1.77;47.88;99720.00;4995852;28;20054;-55
2021/03/06 10:14:42;;;;;;;3.30;2.50;;;;;;;-1.58;45.76;99701.94;5005446;28;20037;-54
2021/03/06 10:17:09;;;;;;;3.75;2.53;;;;;;;-1.58;44.75;99722.25;4995923;28;20122;-55
2021/03/06 10:19:47;;;;;;;3.95;2.83;;;;;;;-1.18;45.79;99732.66;4996056;28;20337;-55
2021/03/06 10:22:15;;;;;;;4.93;3.15;;;;;;;-1.22;46.34;99713.91;4998882;28;20022;-54
2021/03/06 10:25:02;;;;;;;5.28;2.90;;;;;;;-1.29;46.00;99708.63;5002585;28;20038;-55
2021/03/06 10:27:35;;;;;;;6.10;3.25;;;;;;;-1.03;45.37;99703.38;5002450;28;20046;-54
2021/03/06 10:30:30;;;;;;;4.65;2.97;;;;;;;-1.21;46.22;99691.94;5002510;28;20371;-54
2021/03/06 10:33:01;;;;;;;8.73;3.20;;;;;;;-1.06;45.64;99633.84;4989432;28;20044;-54
2021/03/06 10:35:38;;;;;;;8.23;3.30;;;;;;;-0.46;46.10;99689.50;5002463;28;20106;-55
2021/03/06 10:38:07;;;;;;;4.05;2.67;;;;;;;-0.69;47.10;99684.72;5002816;28;20081;-55
2021/03/06 10:40:50;;;;;;;6.25;3.05;;;;;;;-0.48;45.92;99665.72;5002477;28;20042;-55
2021/03/06 10:43:26;;;;;;;6.32;3.28;;;;;;;-1.00;46.31;99686.50;5002117;28;20193;-55
2021/03/06 10:45:52;;;;;;;8.15;3.63;;;;;;;-1.02;45.79;99678.00;5002211;28;20031;-55
2021/03/06 10:48:31;;;;;;;4.95;3.03;;;;;;;-0.65;44.82;99678.91;5002146;28;20057;-55
2021/03/06 10:50:57;;;;;;;8.50;3.00;;;;;;;-0.68;45.60;99678.81;5002159;28;20034;-55
2021/03/06 10:53:24;;;;;;;7.13;3.63;;;;;;;-0.82;43.33;99683.56;5000597;28;20068;-54
2021/03/06 10:55:52;;;;;;;5.93;3.10;;;;;;;-0.62;44.00;99678.13;5000326;28;20034;-55
2021/03/06 10:58:19;;;;;;;5.97;2.70;;;;;;;-0.97;43.75;99614.56;4998833;28;20041;-55
2021/03/06 11:00:46;;;;;;;4.28;2.60;;;;;;;-0.74;43.10;99671.91;4988120;28;20034;-54
2021/03/06 11:03:13;;;;;;;3.72;2.80;;;;;;;-0.70;41.70;99672.81;5000211;28;20041;-54
2021/03/06 11:05:42;;;;;;;4.28;2.88;;;;;;;-1.24;42.73;99620.69;5000608;28;20033;-54
2021/03/06 11:08:17;;;;;;;4.78;3.25;;;;;;;-1.66;46.17;99599.31;5000506;28;20065;-54
2021/03/06 11:10:46;;;;;;;4.60;3.00;;;;;;;-0.81;44.84;99692.03;4993660;28;20079;-55
2021/03/06 11:13:11;;;;;;;6.53;3.17;;;;;;;-1.04;44.35;99664.41;5001534;28;20094;-55
2021/03/06 11:15:51;;;;;;;4.72;3.08;;;;;;;-1.19;45.51;99615.75;5004133;28;20034;-54
2021/03/06 11:18:18;;;;;;;4.78;2.70;;;;;;;-1.15;46.53;99670.91;5005380;28;20034;-55
2021/03/06 11:20:45;;;;;;;5.63;2.30;;;;;;;-1.29;47.14;99680.69;5005474;28;20045;-54
2021/03/06 11:23:10;;;;;;;4.97;2.28;;;;;;;-1.71;48.07;99673.63;5005154;28;20223;-53
2021/03/06 11:25:36;;;;;;;3.13;2.00;;;;;;;-1.75;47.97;99685.38;4989213;28;20045;-55
2021/03/06 11:28:08;;;;;;;7.15;1.90;;;;;;;-1.93;48.74;99610.44;5005353;28;20032;-55
2021/03/06 11:30:36;;;;;;;3.60;2.03;;;;;;;-1.53;47.87;99663.97;5005135;28;20038;-54
2021/03/06 11:33:05;;;;;;;2.78;2.00;;;;;;;-1.52;48.23;99691.09;5005174;28;20022;-55
2021/03/06 11:35:32;;;;;;;3.13;2.22;;;;;;;-1.62;48.72;99664.59;4987770;28;20089;-54
2021/03/06 11:37:58;;;;;;;5.03;2.25;;;;;;;-1.40;47.92;99673.66;5005073;28;20133;-55
2021/03/06 11:40:30;;;;;;;3.95;2.10;;;;;;;-1.52;49.87;99680.09;5004941;28;20041;-55
2021/03/06 11:42:56;;;;;;;6.55;2.33;;;;;;;-1.31;49.02;99675.56;5010691;28;20037;-54
2021/03/06 11:45:22;;;;;;;5.47;1.92;;;;;;;-1.68;46.87;99669.50;5005058;28;20038;-54
2021/03/06 11:47:50;;;;;;;3.28;2.05;;;;;;;-1.77;48.60;99641.31;4970393;28;20069;-56